sensor_id;sensor_type;location;lat;lon;timestamp;temperature;humidity
68801;SHT31;55784;50.734;7.086;2022-11-04T00:01:03;11.27;87.49
68801;SHT31;55784;50.734;7.086;2022-11-04T00:03:29;11.21;88.44
68801;SHT31;55784;50.734;7.086;2022-11-04T00:05:54;11.11;89.07
68801;SHT31;55784;50.734;7.086;2022-11-04T00:08:19;11.04;90.16
68801;SHT31;55784;50.734;7.086;2022-11-04T00:10:47;10.96;90.34
68801;SHT31;55784;50.734;7.086;2022-11-04T00:13:31;10.95;90.81
68801;SHT31;55784;50.734;7.086;2022-11-04T00:16:00;10.95;91.11
68801;SHT31;55784;50.734;7.086;2022-11-04T00:18:48;10.93;91.06
68801;SHT31;55784;50.734;7.086;2022-11-04T00:21:13;10.93;90.67
68801;SHT31;55784;50.734;7.086;2022-11-04T00:23:58;10.99;90.34
68801;SHT31;55784;50.734;7.086;2022-11-04T00:26:43;11.00;90.60
68801;SHT31;55784;50.734;7.086;2022-11-04T00:29:27;10.97;90.44
68801;SHT31;55784;50.734;7.086;2022-11-04T00:31:52;10.89;90.69
68801;SHT31;55784;50.734;7.086;2022-11-04T00:34:36;10.76;90.84
68801;SHT31;55784;50.734;7.086;2022-11-04T00:37:01;10.72;90.64
68801;SHT31;55784;50.734;7.086;2022-11-04T00:39:27;10.66;90.04
68801;SHT31;55784;50.734;7.086;2022-11-04T00:41:53;10.57;90.28
68801;SHT31;55784;50.734;7.086;2022-11-04T00:44:18;10.49;90.53
68801;SHT31;55784;50.734;7.086;2022-11-04T00:46:44;10.39;91.03
68801;SHT31;55784;50.734;7.086;2022-11-04T00:49:09;10.34;91.32
68801;SHT31;55784;50.734;7.086;2022-11-04T00:51:34;10.32;91.40
68801;SHT31;55784;50.734;7.086;2022-11-04T00:54:00;10.32;91.75
68801;SHT31;55784;50.734;7.086;2022-11-04T00:56:25;10.34;91.70
68801;SHT31;55784;50.734;7.086;2022-11-04T00:58:50;10.34;91.85
68801;SHT31;55784;50.734;7.086;2022-11-04T01:01:17;10.42;91.41
68801;SHT31;55784;50.734;7.086;2022-11-04T01:03:48;10.46;91.22
68801;SHT31;55784;50.734;7.086;2022-11-04T01:06:13;10.42;91.00
68801;SHT31;55784;50.734;7.086;2022-11-04T01:08:39;10.34;90.91
68801;SHT31;55784;50.734;7.086;2022-11-04T01:11:07;10.28;90.91
68801;SHT31;55784;50.734;7.086;2022-11-04T01:13:32;10.21;91.12
68801;SHT31;55784;50.734;7.086;2022-11-04T01:16:00;10.12;91.42
68801;SHT31;55784;50.734;7.086;2022-11-04T01:18:26;9.97;91.85
68801;SHT31;55784;50.734;7.086;2022-11-04T01:20:51;9.81;92.65
68801;SHT31;55784;50.734;7.086;2022-11-04T01:23:17;9.73;92.72
68801;SHT31;55784;50.734;7.086;2022-11-04T01:25:46;9.67;93.25
68801;SHT31;55784;50.734;7.086;2022-11-04T01:28:11;9.63;93.54
68801;SHT31;55784;50.734;7.086;2022-11-04T01:30:37;9.51;93.77
68801;SHT31;55784;50.734;7.086;2022-11-04T01:33:03;9.46;94.02
68801;SHT31;55784;50.734;7.086;2022-11-04T01:35:28;9.40;94.11
68801;SHT31;55784;50.734;7.086;2022-11-04T01:37:53;9.37;94.11
68801;SHT31;55784;50.734;7.086;2022-11-04T01:40:19;9.32;94.27
68801;SHT31;55784;50.734;7.086;2022-11-04T01:42:44;9.22;94.34
68801;SHT31;55784;50.734;7.086;2022-11-04T01:45:14;9.23;94.37
68801;SHT31;55784;50.734;7.086;2022-11-04T01:47:51;9.26;94.18
68801;SHT31;55784;50.734;7.086;2022-11-04T01:50:25;9.24;94.17
68801;SHT31;55784;50.734;7.086;2022-11-04T01:52:57;9.13;93.93
68801;SHT31;55784;50.734;7.086;2022-11-04T01:55:27;9.12;93.87
68801;SHT31;55784;50.734;7.086;2022-11-04T01:57:55;9.05;93.64
68801;SHT31;55784;50.734;7.086;2022-11-04T02:00:21;9.00;93.55
68801;SHT31;55784;50.734;7.086;2022-11-04T02:03:05;8.90;93.63
68801;SHT31;55784;50.734;7.086;2022-11-04T02:05:32;8.82;94.09
68801;SHT31;55784;50.734;7.086;2022-11-04T02:07:58;8.73;93.90
68801;SHT31;55784;50.734;7.086;2022-11-04T02:10:28;8.72;93.95
68801;SHT31;55784;50.734;7.086;2022-11-04T02:12:54;8.69;94.12
68801;SHT31;55784;50.734;7.086;2022-11-04T02:15:42;8.59;94.29
68801;SHT31;55784;50.734;7.086;2022-11-04T02:18:47;8.64;94.31
68801;SHT31;55784;50.734;7.086;2022-11-04T02:21:33;8.62;94.30
68801;SHT31;55784;50.734;7.086;2022-11-04T02:24:12;8.61;94.59
68801;SHT31;55784;50.734;7.086;2022-11-04T02:27:11;8.58;94.80
68801;SHT31;55784;50.734;7.086;2022-11-04T02:30:12;8.55;94.75
68801;SHT31;55784;50.734;7.086;2022-11-04T02:32:58;8.54;94.47
68801;SHT31;55784;50.734;7.086;2022-11-04T02:41:37;8.54;93.62
68801;SHT31;55784;50.734;7.086;2022-11-04T02:44:18;8.57;93.22
68801;SHT31;55784;50.734;7.086;2022-11-04T02:49:17;8.61;92.95
68801;SHT31;55784;50.734;7.086;2022-11-04T02:51:57;8.59;92.79
68801;SHT31;55784;50.734;7.086;2022-11-04T02:54:50;8.59;92.41
68801;SHT31;55784;50.734;7.086;2022-11-04T02:57:28;8.52;92.42
68801;SHT31;55784;50.734;7.086;2022-11-04T03:02:27;8.45;92.45
68801;SHT31;55784;50.734;7.086;2022-11-04T03:04:54;8.42;92.57
68801;SHT31;55784;50.734;7.086;2022-11-04T03:07:26;8.38;92.67
68801;SHT31;55784;50.734;7.086;2022-11-04T03:09:58;8.34;93.00
68801;SHT31;55784;50.734;7.086;2022-11-04T03:12:28;8.31;93.02
68801;SHT31;55784;50.734;7.086;2022-11-04T03:15:00;8.23;93.06
68801;SHT31;55784;50.734;7.086;2022-11-04T03:17:38;8.27;93.01
68801;SHT31;55784;50.734;7.086;2022-11-04T03:20:10;8.26;92.95
68801;SHT31;55784;50.734;7.086;2022-11-04T03:22:37;8.23;92.90
68801;SHT31;55784;50.734;7.086;2022-11-04T03:25:04;8.17;92.86
68801;SHT31;55784;50.734;7.086;2022-11-04T03:32:57;8.28;92.81
68801;SHT31;55784;50.734;7.086;2022-11-04T03:35:24;8.27;92.74
68801;SHT31;55784;50.734;7.086;2022-11-04T03:37:50;8.28;92.90
68801;SHT31;55784;50.734;7.086;2022-11-04T03:40:17;8.17;92.99
68801;SHT31;55784;50.734;7.086;2022-11-04T03:42:47;8.06;93.11
68801;SHT31;55784;50.734;7.086;2022-11-04T03:45:15;8.07;93.24
68801;SHT31;55784;50.734;7.086;2022-11-04T03:47:40;8.06;93.42
68801;SHT31;55784;50.734;7.086;2022-11-04T03:50:09;7.98;93.53
68801;SHT31;55784;50.734;7.086;2022-11-04T03:52:36;7.97;94.00
68801;SHT31;55784;50.734;7.086;2022-11-04T03:55:03;7.90;94.39
68801;SHT31;55784;50.734;7.086;2022-11-04T04:00:11;8.00;93.68
68801;SHT31;55784;50.734;7.086;2022-11-04T04:08:11;7.90;93.82
68801;SHT31;55784;50.734;7.086;2022-11-04T04:11:15;7.91;93.90
68801;SHT31;55784;50.734;7.086;2022-11-04T04:16:29;7.77;94.09
68801;SHT31;55784;50.734;7.086;2022-11-04T04:19:15;7.75;94.33
68801;SHT31;55784;50.734;7.086;2022-11-04T04:21:57;7.67;94.68
68801;SHT31;55784;50.734;7.086;2022-11-04T04:24:27;7.69;94.99
68801;SHT31;55784;50.734;7.086;2022-11-04T04:27:12;7.62;94.88
68801;SHT31;55784;50.734;7.086;2022-11-04T04:30:08;7.62;95.14
68801;SHT31;55784;50.734;7.086;2022-11-04T04:32:43;7.61;95.22
68801;SHT31;55784;50.734;7.086;2022-11-04T04:35:09;7.66;95.17
68801;SHT31;55784;50.734;7.086;2022-11-04T04:37:57;7.66;94.99
68801;SHT31;55784;50.734;7.086;2022-11-04T04:40:47;7.66;95.10
68801;SHT31;55784;50.734;7.086;2022-11-04T04:43:32;7.65;95.10
68801;SHT31;55784;50.734;7.086;2022-11-04T04:46:30;7.65;95.16
68801;SHT31;55784;50.734;7.086;2022-11-04T04:49:03;7.66;95.35
68801;SHT31;55784;50.734;7.086;2022-11-04T04:51:30;7.67;95.19
68801;SHT31;55784;50.734;7.086;2022-11-04T04:53:55;7.63;95.14
68801;SHT31;55784;50.734;7.086;2022-11-04T04:56:20;7.62;95.38
68801;SHT31;55784;50.734;7.086;2022-11-04T04:58:45;7.62;95.32
68801;SHT31;55784;50.734;7.086;2022-11-04T05:01:11;7.65;95.61
68801;SHT31;55784;50.734;7.086;2022-11-04T05:03:36;7.66;95.46
68801;SHT31;55784;50.734;7.086;2022-11-04T05:06:01;7.77;95.46
68801;SHT31;55784;50.734;7.086;2022-11-04T05:08:27;7.73;95.45
68801;SHT31;55784;50.734;7.086;2022-11-04T05:10:52;7.76;95.48
68801;SHT31;55784;50.734;7.086;2022-11-04T05:13:17;7.72;95.55
68801;SHT31;55784;50.734;7.086;2022-11-04T05:15:55;7.67;95.60
68801;SHT31;55784;50.734;7.086;2022-11-04T05:18:20;7.58;95.66
68801;SHT31;55784;50.734;7.086;2022-11-04T05:20:45;7.48;95.75
68801;SHT31;55784;50.734;7.086;2022-11-04T05:23:11;7.48;96.22
68801;SHT31;55784;50.734;7.086;2022-11-04T05:25:38;7.45;96.36
68801;SHT31;55784;50.734;7.086;2022-11-04T05:28:04;7.49;96.51
68801;SHT31;55784;50.734;7.086;2022-11-04T05:30:30;7.59;96.32
68801;SHT31;55784;50.734;7.086;2022-11-04T05:32:55;7.63;96.04
68801;SHT31;55784;50.734;7.086;2022-11-04T05:35:20;7.59;96.07
68801;SHT31;55784;50.734;7.086;2022-11-04T05:37:46;7.56;96.32
68801;SHT31;55784;50.734;7.086;2022-11-04T05:40:11;7.48;96.22
68801;SHT31;55784;50.734;7.086;2022-11-04T05:42:37;7.43;96.30
68801;SHT31;55784;50.734;7.086;2022-11-04T05:45:03;7.36;96.41
68801;SHT31;55784;50.734;7.086;2022-11-04T05:47:29;7.32;96.52
68801;SHT31;55784;50.734;7.086;2022-11-04T05:49:54;7.33;96.86
68801;SHT31;55784;50.734;7.086;2022-11-04T05:52:19;7.38;96.87
68801;SHT31;55784;50.734;7.086;2022-11-04T05:54:44;7.39;97.03
68801;SHT31;55784;50.734;7.086;2022-11-04T05:57:10;7.45;97.00
68801;SHT31;55784;50.734;7.086;2022-11-04T05:59:35;7.41;96.95
68801;SHT31;55784;50.734;7.086;2022-11-04T06:02:01;7.38;97.00
68801;SHT31;55784;50.734;7.086;2022-11-04T06:04:27;7.32;97.05
68801;SHT31;55784;50.734;7.086;2022-11-04T06:06:52;7.32;97.12
68801;SHT31;55784;50.734;7.086;2022-11-04T06:09:18;7.36;97.06
68801;SHT31;55784;50.734;7.086;2022-11-04T06:11:43;7.42;97.01
68801;SHT31;55784;50.734;7.086;2022-11-04T06:14:09;7.41;97.02
68801;SHT31;55784;50.734;7.086;2022-11-04T06:16:36;7.46;96.93
68801;SHT31;55784;50.734;7.086;2022-11-04T06:19:01;7.48;96.96
68801;SHT31;55784;50.734;7.086;2022-11-04T06:21:29;7.48;96.84
68801;SHT31;55784;50.734;7.086;2022-11-04T06:23:56;7.48;96.94
68801;SHT31;55784;50.734;7.086;2022-11-04T06:26:23;7.49;96.82
68801;SHT31;55784;50.734;7.086;2022-11-04T06:28:49;7.55;96.86
68801;SHT31;55784;50.734;7.086;2022-11-04T06:31:15;7.55;97.02
68801;SHT31;55784;50.734;7.086;2022-11-04T06:33:41;7.61;97.00
68801;SHT31;55784;50.734;7.086;2022-11-04T06:36:09;7.65;96.94
68801;SHT31;55784;50.734;7.086;2022-11-04T06:38:35;7.69;97.12
68801;SHT31;55784;50.734;7.086;2022-11-04T06:41:05;7.73;97.16
68801;SHT31;55784;50.734;7.086;2022-11-04T06:43:30;7.79;97.23
68801;SHT31;55784;50.734;7.086;2022-11-04T06:45:57;7.84;97.30
68801;SHT31;55784;50.734;7.086;2022-11-04T06:48:24;7.94;97.20
68801;SHT31;55784;50.734;7.086;2022-11-04T06:50:49;8.00;97.10
68801;SHT31;55784;50.734;7.086;2022-11-04T06:53:15;8.11;97.01
68801;SHT31;55784;50.734;7.086;2022-11-04T06:55:41;8.20;96.68
68801;SHT31;55784;50.734;7.086;2022-11-04T06:58:06;8.28;96.54
68801;SHT31;55784;50.734;7.086;2022-11-04T07:00:32;8.33;96.17
68801;SHT31;55784;50.734;7.086;2022-11-04T07:02:57;8.38;96.11
68801;SHT31;55784;50.734;7.086;2022-11-04T07:05:23;8.44;96.04
68801;SHT31;55784;50.734;7.086;2022-11-04T07:07:48;8.57;95.74
68801;SHT31;55784;50.734;7.086;2022-11-04T07:10:14;8.59;95.11
68801;SHT31;55784;50.734;7.086;2022-11-04T07:12:39;8.67;94.94
68801;SHT31;55784;50.734;7.086;2022-11-04T07:15:05;8.71;94.23
68801;SHT31;55784;50.734;7.086;2022-11-04T07:17:30;8.76;94.59
68801;SHT31;55784;50.734;7.086;2022-11-04T07:19:56;8.88;94.38
68801;SHT31;55784;50.734;7.086;2022-11-04T07:22:21;8.96;94.25
68801;SHT31;55784;50.734;7.086;2022-11-04T07:24:47;9.03;93.24
68801;SHT31;55784;50.734;7.086;2022-11-04T07:27:13;9.09;93.45
68801;SHT31;55784;50.734;7.086;2022-11-04T07:29:38;9.18;93.12
68801;SHT31;55784;50.734;7.086;2022-11-04T07:32:04;9.20;93.09
68801;SHT31;55784;50.734;7.086;2022-11-04T07:34:29;9.24;92.68
68801;SHT31;55784;50.734;7.086;2022-11-04T07:36:55;9.32;92.40
68801;SHT31;55784;50.734;7.086;2022-11-04T07:39:20;9.32;92.52
68801;SHT31;55784;50.734;7.086;2022-11-04T07:41:46;9.44;92.20
68801;SHT31;55784;50.734;7.086;2022-11-04T07:44:11;9.47;92.27
68801;SHT31;55784;50.734;7.086;2022-11-04T07:46:37;9.46;92.36
68801;SHT31;55784;50.734;7.086;2022-11-04T07:49:02;9.42;92.17
68801;SHT31;55784;50.734;7.086;2022-11-04T07:51:28;9.44;92.48
68801;SHT31;55784;50.734;7.086;2022-11-04T07:53:56;9.55;92.32
68801;SHT31;55784;50.734;7.086;2022-11-04T07:56:22;9.58;92.28
68801;SHT31;55784;50.734;7.086;2022-11-04T07:58:48;9.65;92.05
68801;SHT31;55784;50.734;7.086;2022-11-04T08:01:17;9.71;91.71
68801;SHT31;55784;50.734;7.086;2022-11-04T08:03:42;9.87;91.67
68801;SHT31;55784;50.734;7.086;2022-11-04T08:06:10;10.02;91.16
68801;SHT31;55784;50.734;7.086;2022-11-04T08:08:35;10.16;90.68
68801;SHT31;55784;50.734;7.086;2022-11-04T08:11:15;10.28;89.77
68801;SHT31;55784;50.734;7.086;2022-11-04T08:13:41;10.42;89.58
68801;SHT31;55784;50.734;7.086;2022-11-04T08:16:10;10.55;89.28
68801;SHT31;55784;50.734;7.086;2022-11-04T08:18:38;10.66;88.35
68801;SHT31;55784;50.734;7.086;2022-11-04T08:21:04;10.75;88.41
68801;SHT31;55784;50.734;7.086;2022-11-04T08:23:30;10.83;88.47
68801;SHT31;55784;50.734;7.086;2022-11-04T08:25:56;10.90;88.27
68801;SHT31;55784;50.734;7.086;2022-11-04T08:28:21;11.03;88.03
68801;SHT31;55784;50.734;7.086;2022-11-04T08:33:25;11.28;87.40
68801;SHT31;55784;50.734;7.086;2022-11-04T08:35:52;11.37;87.48
68801;SHT31;55784;50.734;7.086;2022-11-04T08:38:18;11.48;87.29
68801;SHT31;55784;50.734;7.086;2022-11-04T08:40:43;11.60;87.40
68801;SHT31;55784;50.734;7.086;2022-11-04T08:43:09;11.68;86.77
68801;SHT31;55784;50.734;7.086;2022-11-04T08:45:42;11.70;86.63
68801;SHT31;55784;50.734;7.086;2022-11-04T08:48:08;11.74;86.92
68801;SHT31;55784;50.734;7.086;2022-11-04T08:50:33;11.85;86.43
68801;SHT31;55784;50.734;7.086;2022-11-04T08:52:59;11.88;86.74
68801;SHT31;55784;50.734;7.086;2022-11-04T08:55:28;11.85;86.60
68801;SHT31;55784;50.734;7.086;2022-11-04T08:57:53;11.86;86.92
68801;SHT31;55784;50.734;7.086;2022-11-04T09:00:18;11.83;86.95
68801;SHT31;55784;50.734;7.086;2022-11-04T09:02:45;11.88;87.23
68801;SHT31;55784;50.734;7.086;2022-11-04T09:05:10;11.83;86.83
68801;SHT31;55784;50.734;7.086;2022-11-04T09:07:36;11.88;86.42
68801;SHT31;55784;50.734;7.086;2022-11-04T09:10:02;11.82;86.61
68801;SHT31;55784;50.734;7.086;2022-11-04T09:12:28;11.83;86.77
68801;SHT31;55784;50.734;7.086;2022-11-04T09:14:53;11.89;86.57
68801;SHT31;55784;50.734;7.086;2022-11-04T09:17:18;11.92;86.36
68801;SHT31;55784;50.734;7.086;2022-11-04T09:19:44;12.02;85.65
68801;SHT31;55784;50.734;7.086;2022-11-04T09:22:10;12.13;85.88
68801;SHT31;55784;50.734;7.086;2022-11-04T09:24:36;12.42;85.22
68801;SHT31;55784;50.734;7.086;2022-11-04T09:27:01;12.60;84.01
68801;SHT31;55784;50.734;7.086;2022-11-04T09:29:27;12.77;83.02
68801;SHT31;55784;50.734;7.086;2022-11-04T09:32:23;12.76;83.23
68801;SHT31;55784;50.734;7.086;2022-11-04T09:34:49;12.68;82.61
68801;SHT31;55784;50.734;7.086;2022-11-04T09:37:14;12.88;82.73
68801;SHT31;55784;50.734;7.086;2022-11-04T09:39:40;12.87;82.17
68801;SHT31;55784;50.734;7.086;2022-11-04T09:42:12;12.84;82.90
68801;SHT31;55784;50.734;7.086;2022-11-04T09:44:59;12.88;83.12
68801;SHT31;55784;50.734;7.086;2022-11-04T09:47:26;12.90;82.20
68801;SHT31;55784;50.734;7.086;2022-11-04T09:49:53;13.04;82.34
68801;SHT31;55784;50.734;7.086;2022-11-04T09:52:46;13.24;81.81
68801;SHT31;55784;50.734;7.086;2022-11-04T09:55:28;13.38;81.28
68801;SHT31;55784;50.734;7.086;2022-11-04T09:57:56;13.45;80.80
68801;SHT31;55784;50.734;7.086;2022-11-04T10:00:24;13.51;80.31
68801;SHT31;55784;50.734;7.086;2022-11-04T10:02:59;13.57;80.43
68801;SHT31;55784;50.734;7.086;2022-11-04T10:21:30;14.56;76.93
68801;SHT31;55784;50.734;7.086;2022-11-04T10:31:54;14.63;75.86
68801;SHT31;55784;50.734;7.086;2022-11-04T10:34:43;14.60;74.77
68801;SHT31;55784;50.734;7.086;2022-11-04T10:37:11;14.71;75.46
68801;SHT31;55784;50.734;7.086;2022-11-04T10:39:42;14.74;75.44
68801;SHT31;55784;50.734;7.086;2022-11-04T10:42:37;14.80;74.30
68801;SHT31;55784;50.734;7.086;2022-11-04T10:45:03;14.37;74.54
68801;SHT31;55784;50.734;7.086;2022-11-04T10:47:36;14.43;74.50
68801;SHT31;55784;50.734;7.086;2022-11-04T10:52:47;14.74;74.14
68801;SHT31;55784;50.734;7.086;2022-11-04T10:57:56;14.29;73.51
68801;SHT31;55784;50.734;7.086;2022-11-04T11:00:42;14.34;74.05
68801;SHT31;55784;50.734;7.086;2022-11-04T11:03:29;14.60;73.89
68801;SHT31;55784;50.734;7.086;2022-11-04T11:06:17;14.63;72.70
68801;SHT31;55784;50.734;7.086;2022-11-04T11:08:43;14.67;72.28
68801;SHT31;55784;50.734;7.086;2022-11-04T11:11:11;14.77;72.68
68801;SHT31;55784;50.734;7.086;2022-11-04T11:13:43;14.85;71.25
68801;SHT31;55784;50.734;7.086;2022-11-04T11:16:12;14.96;71.37
68801;SHT31;55784;50.734;7.086;2022-11-04T11:18:41;14.94;71.41
68801;SHT31;55784;50.734;7.086;2022-11-04T11:23:43;14.51;71.23
68801;SHT31;55784;50.734;7.086;2022-11-04T11:26:27;14.48;72.21
68801;SHT31;55784;50.734;7.086;2022-11-04T11:28:55;14.54;72.36
68801;SHT31;55784;50.734;7.086;2022-11-04T11:31:22;14.48;72.18
68801;SHT31;55784;50.734;7.086;2022-11-04T11:33:59;14.56;73.12
68801;SHT31;55784;50.734;7.086;2022-11-04T11:36:30;14.61;73.08
68801;SHT31;55784;50.734;7.086;2022-11-04T11:39:03;14.65;72.70
68801;SHT31;55784;50.734;7.086;2022-11-04T11:41:35;14.59;72.37
68801;SHT31;55784;50.734;7.086;2022-11-04T11:44:22;14.41;72.94
68801;SHT31;55784;50.734;7.086;2022-11-04T11:46:54;14.45;73.15
68801;SHT31;55784;50.734;7.086;2022-11-04T11:49:25;14.50;73.18
68801;SHT31;55784;50.734;7.086;2022-11-04T11:51:53;14.56;72.88
68801;SHT31;55784;50.734;7.086;2022-11-04T11:56:49;14.38;70.99
68801;SHT31;55784;50.734;7.086;2022-11-04T11:59:44;13.89;71.17
68801;SHT31;55784;50.734;7.086;2022-11-04T12:03:04;13.82;71.59
68801;SHT31;55784;50.734;7.086;2022-11-04T12:05:12;13.95;72.45
68801;SHT31;55784;50.734;7.086;2022-11-04T12:07:53;14.16;71.84
68801;SHT31;55784;50.734;7.086;2022-11-04T12:10:42;14.23;70.76
68801;SHT31;55784;50.734;7.086;2022-11-04T12:21:13;14.45;70.96
68801;SHT31;55784;50.734;7.086;2022-11-04T12:26:29;14.23;70.91
68801;SHT31;55784;50.734;7.086;2022-11-04T12:29:13;14.09;72.05
68801;SHT31;55784;50.734;7.086;2022-11-04T12:32:09;14.13;71.58
68801;SHT31;55784;50.734;7.086;2022-11-04T12:43:19;14.06;73.12
68801;SHT31;55784;50.734;7.086;2022-11-04T12:46:41;14.19;73.11
68801;SHT31;55784;50.734;7.086;2022-11-04T12:52:13;14.24;72.33
68801;SHT31;55784;50.734;7.086;2022-11-04T12:54:59;14.24;72.35
68801;SHT31;55784;50.734;7.086;2022-11-04T12:57:49;14.30;72.78
68801;SHT31;55784;50.734;7.086;2022-11-04T13:00:19;14.36;74.31
68801;SHT31;55784;50.734;7.086;2022-11-04T13:03:20;14.40;75.42
68801;SHT31;55784;50.734;7.086;2022-11-04T13:05:53;14.47;75.31
68801;SHT31;55784;50.734;7.086;2022-11-04T13:08:27;14.51;74.36
68801;SHT31;55784;50.734;7.086;2022-11-04T13:11:24;14.56;74.83
68801;SHT31;55784;50.734;7.086;2022-11-04T13:16:22;14.57;74.28
68801;SHT31;55784;50.734;7.086;2022-11-04T13:18:48;14.50;73.99
68801;SHT31;55784;50.734;7.086;2022-11-04T13:21:18;14.40;73.91
68801;SHT31;55784;50.734;7.086;2022-11-04T13:24:02;14.34;74.25
68801;SHT31;55784;50.734;7.086;2022-11-04T13:26:29;14.30;74.51
68801;SHT31;55784;50.734;7.086;2022-11-04T13:28:59;14.23;74.54
68801;SHT31;55784;50.734;7.086;2022-11-04T13:34:38;14.05;74.42
68801;SHT31;55784;50.734;7.086;2022-11-04T13:37:22;14.00;74.90
68801;SHT31;55784;50.734;7.086;2022-11-04T13:39:58;13.95;75.01
68801;SHT31;55784;50.734;7.086;2022-11-04T13:45:18;13.87;77.60
68801;SHT31;55784;50.734;7.086;2022-11-04T13:47:50;13.92;78.25
68801;SHT31;55784;50.734;7.086;2022-11-04T13:50:38;13.96;78.07
68801;SHT31;55784;50.734;7.086;2022-11-04T13:53:05;13.87;76.62
68801;SHT31;55784;50.734;7.086;2022-11-04T13:55:32;13.79;76.43
68801;SHT31;55784;50.734;7.086;2022-11-04T13:58:02;13.80;76.54
68801;SHT31;55784;50.734;7.086;2022-11-04T14:00:32;13.78;75.20
68801;SHT31;55784;50.734;7.086;2022-11-04T14:02:59;13.82;76.27
68801;SHT31;55784;50.734;7.086;2022-11-04T14:24:11;12.94;85.29
68801;SHT31;55784;50.734;7.086;2022-11-04T15:03:48;12.74;84.73
68801;SHT31;55784;50.734;7.086;2022-11-04T15:16:27;12.64;85.83
68801;SHT31;55784;50.734;7.086;2022-11-04T15:19:27;12.63;85.38
68801;SHT31;55784;50.734;7.086;2022-11-04T16:31:38;10.97;99.99
68801;SHT31;55784;50.734;7.086;2022-11-04T16:35:11;11.00;99.99
68801;SHT31;55784;50.734;7.086;2022-11-04T16:54:31;10.90;99.99
68801;SHT31;55784;50.734;7.086;2022-11-04T17:15:52;11.00;99.99
68801;SHT31;55784;50.734;7.086;2022-11-04T17:21:24;10.97;99.99
68801;SHT31;55784;50.734;7.086;2022-11-04T17:23:53;10.90;99.99
68801;SHT31;55784;50.734;7.086;2022-11-04T17:26:23;10.97;99.99
68801;SHT31;55784;50.734;7.086;2022-11-04T17:29:33;11.00;99.99
68801;SHT31;55784;50.734;7.086;2022-11-04T17:39:21;11.01;99.99
68801;SHT31;55784;50.734;7.086;2022-11-04T17:42:00;11.03;99.99
68801;SHT31;55784;50.734;7.086;2022-11-04T17:45:03;10.95;99.99
68801;SHT31;55784;50.734;7.086;2022-11-04T17:50:37;10.89;99.99
68801;SHT31;55784;50.734;7.086;2022-11-04T17:53:15;10.83;99.99
68801;SHT31;55784;50.734;7.086;2022-11-04T17:55:48;10.73;99.11
68801;SHT31;55784;50.734;7.086;2022-11-04T17:58:25;10.65;98.94
68801;SHT31;55784;50.734;7.086;2022-11-04T18:00:59;10.63;98.14
68801;SHT31;55784;50.734;7.086;2022-11-04T18:03:33;10.66;97.52
68801;SHT31;55784;50.734;7.086;2022-11-04T18:06:04;10.60;97.85
68801;SHT31;55784;50.734;7.086;2022-11-04T18:08:30;10.65;97.16
68801;SHT31;55784;50.734;7.086;2022-11-04T18:11:05;10.65;97.78
68801;SHT31;55784;50.734;7.086;2022-11-04T18:17:22;10.66;97.31
68801;SHT31;55784;50.734;7.086;2022-11-04T18:21:01;10.63;98.04
68801;SHT31;55784;50.734;7.086;2022-11-04T18:27:03;10.65;97.68
68801;SHT31;55784;50.734;7.086;2022-11-04T18:29:41;10.59;97.67
68801;SHT31;55784;50.734;7.086;2022-11-04T18:32:09;10.60;97.83
68801;SHT31;55784;50.734;7.086;2022-11-04T18:34:41;10.56;97.76
68801;SHT31;55784;50.734;7.086;2022-11-04T18:37:14;10.59;97.71
68801;SHT31;55784;50.734;7.086;2022-11-04T18:39:56;10.59;97.93
68801;SHT31;55784;50.734;7.086;2022-11-04T18:42:32;10.60;97.78
68801;SHT31;55784;50.734;7.086;2022-11-04T18:44:57;10.56;97.57
68801;SHT31;55784;50.734;7.086;2022-11-04T18:47:23;10.57;97.86
68801;SHT31;55784;50.734;7.086;2022-11-04T18:49:51;10.55;97.91
68801;SHT31;55784;50.734;7.086;2022-11-04T18:52:16;10.53;97.92
68801;SHT31;55784;50.734;7.086;2022-11-04T18:54:42;10.49;97.77
68801;SHT31;55784;50.734;7.086;2022-11-04T18:57:08;10.52;97.80
68801;SHT31;55784;50.734;7.086;2022-11-04T18:59:34;10.49;97.60
68801;SHT31;55784;50.734;7.086;2022-11-04T19:02:00;10.50;97.51
68801;SHT31;55784;50.734;7.086;2022-11-04T19:04:25;10.45;97.69
68801;SHT31;55784;50.734;7.086;2022-11-04T19:06:51;10.46;98.12
68801;SHT31;55784;50.734;7.086;2022-11-04T19:09:16;10.45;97.74
68801;SHT31;55784;50.734;7.086;2022-11-04T19:11:41;10.46;97.57
68801;SHT31;55784;50.734;7.086;2022-11-04T19:14:09;10.49;97.57
68801;SHT31;55784;50.734;7.086;2022-11-04T19:16:35;10.48;97.51
68801;SHT31;55784;50.734;7.086;2022-11-04T19:19:03;10.48;97.76
68801;SHT31;55784;50.734;7.086;2022-11-04T19:21:29;10.46;97.92
68801;SHT31;55784;50.734;7.086;2022-11-04T19:23:56;10.46;97.23
68801;SHT31;55784;50.734;7.086;2022-11-04T19:26:32;10.45;97.00
68801;SHT31;55784;50.734;7.086;2022-11-04T19:29:07;10.49;96.44
68801;SHT31;55784;50.734;7.086;2022-11-04T19:31:32;10.49;96.59
68801;SHT31;55784;50.734;7.086;2022-11-04T19:33:59;10.50;96.53
68801;SHT31;55784;50.734;7.086;2022-11-04T19:36:27;10.55;97.18
68801;SHT31;55784;50.734;7.086;2022-11-04T19:38:54;10.52;97.29
68801;SHT31;55784;50.734;7.086;2022-11-04T19:41:20;10.45;96.00
68801;SHT31;55784;50.734;7.086;2022-11-04T19:44:07;10.44;96.62
68801;SHT31;55784;50.734;7.086;2022-11-04T19:46:34;10.36;96.75
68801;SHT31;55784;50.734;7.086;2022-11-04T19:48:59;10.34;97.22
68801;SHT31;55784;50.734;7.086;2022-11-04T19:51:25;10.32;96.57
68801;SHT31;55784;50.734;7.086;2022-11-04T19:53:51;10.35;96.67
68801;SHT31;55784;50.734;7.086;2022-11-04T19:56:17;10.36;96.19
68801;SHT31;55784;50.734;7.086;2022-11-04T19:58:43;10.41;96.55
68801;SHT31;55784;50.734;7.086;2022-11-04T20:01:10;10.45;96.92
68801;SHT31;55784;50.734;7.086;2022-11-04T20:03:39;10.46;96.29
68801;SHT31;55784;50.734;7.086;2022-11-04T20:06:09;10.53;97.12
68801;SHT31;55784;50.734;7.086;2022-11-04T20:08:38;10.63;96.81
68801;SHT31;55784;50.734;7.086;2022-11-04T20:11:07;10.65;97.18
68801;SHT31;55784;50.734;7.086;2022-11-04T20:13:33;10.72;97.10
68801;SHT31;55784;50.734;7.086;2022-11-04T20:16:16;10.63;96.03
68801;SHT31;55784;50.734;7.086;2022-11-04T20:18:45;10.66;96.34
68801;SHT31;55784;50.734;7.086;2022-11-04T20:21:14;10.66;96.47
68801;SHT31;55784;50.734;7.086;2022-11-04T20:23:40;10.67;96.22
68801;SHT31;55784;50.734;7.086;2022-11-04T20:26:14;10.66;96.06
68801;SHT31;55784;50.734;7.086;2022-11-04T20:28:43;10.66;95.50
68801;SHT31;55784;50.734;7.086;2022-11-04T20:31:11;10.59;94.83
68801;SHT31;55784;50.734;7.086;2022-11-04T20:33:46;10.57;94.74
68801;SHT31;55784;50.734;7.086;2022-11-04T20:36:32;10.57;94.45
68801;SHT31;55784;50.734;7.086;2022-11-04T20:39:04;10.57;94.32
68801;SHT31;55784;50.734;7.086;2022-11-04T20:41:30;10.56;94.56
68801;SHT31;55784;50.734;7.086;2022-11-04T20:43:56;10.56;94.54
68801;SHT31;55784;50.734;7.086;2022-11-04T20:46:24;10.59;94.84
68801;SHT31;55784;50.734;7.086;2022-11-04T20:48:51;10.62;95.42
68801;SHT31;55784;50.734;7.086;2022-11-04T20:51:28;10.62;94.97